Picture Butte, Canada
Current Conditions -  °F | °C
As of 3:30 AM on Sunday 26 Oct 2014 (Local Time) from CYQL Reporting Station
Broken Clouds Broken Clouds  
Wind Chill: 31°   Ceiling: 24000
Heat Index: 39°   Visibility: 9mi
Dew Point: 36°   Wind: 15mph
Humidity: 87%   Direction: 170°S
Pressure: 29.45"   Gusts: NA
Location:  49.87°N, 112.78°W
Report Text: CYQL 260930Z AUTO 17013KT 9SM BKN240 04/02 A2945 RMK SLP983
Loading
Personal Weather Stations






























Interactive Weather Map
Tropical Storm Tracking
New forecast layout! Learn more

10-Day Weather Forecast

Advertisements
Track Severe Weather on mobile